Rowena, Texas
Current Conditions -  °F | °C
As of 9:51 PM on Thursday 20 Nov 2014 (Local Time) from KSJT Reporting Station
Clear Clear  
Wind Chill: 11°   Ceiling: Unl
Heat Index: 11°   Visibility: 10mi
Dew Point:   Wind: 3mph
Humidity: 77%   Direction: 210°SSW
Pressure: 30.01"   Gusts: NA
Location:  31.65°N, 100.05°W
Report Text: KSJT 210351Z AUTO 21003KT 10SM CLR 11/07 A3001 RMK AO2 SLP157 T01110072
Loading
Personal Weather Stations






























Interactive Weather Map New forecast layout! Learn more

10-Day Weather Forecast

Advertisements
Track Severe Weather on mobile